PATA/TAL METAR and TAF weather

Enter ICAO airport designator
Station Type Date Time Source
PATA METAR 2020/09/23 03:52 UTC NOAA

PATA 230352Z 36010KT 10SM FEW200 07/00 A2955 RMK AO2 SLP010 T00720000


Station Type Date Time Source
PATA Decoded METAR 2020/09/23 03:52 UTC NOAA

TANANA CALHOUN MEMORIAL AIRPORT , AK, United States (PATA) 65-10N 152-06W 67M
Sep 22, 2020 - 11:52 PM EDT / 2020.09.23 0352 UTC
Wind: from the N (360 degrees) at 12 MPH (10 KT):0
Visibility: 10 mile(s):0
Sky conditions: mostly clear
Temperature: 45.0 F (7.2 C)
Dew Point: 32.0 F (0.0 C)
Relative Humidity: 60%
Pressure (altimeter): 29.55 in. Hg (1000 hPa)
ob: PATA 230352Z 36010KT 10SM FEW200 07/00 A2955 RMK AO2 SLP010 T00720000
cycle: 4

Station Type Date Time Source
PATA TAF 2020/09/22 18:36 UTC NOAA

TAF PATA 221733Z 2218/2318 VRB05KT P6SM SKC

Example: see airport list